createdAt,value
2018-02-08T00:00:21.967Z,84.80
2018-02-08T00:02:49.542Z,84.60
2018-02-08T00:05:17.173Z,84.60
2018-02-08T00:07:44.771Z,84.80
2018-02-08T00:10:12.424Z,85.40
2018-02-08T00:12:40.017Z,85.10
2018-02-08T00:15:07.675Z,85.10
2018-02-08T00:17:35.644Z,85.50
2018-02-08T00:20:03.267Z,85.50
2018-02-08T00:22:42.555Z,85.60
2018-02-08T00:25:10.146Z,85.60
2018-02-08T00:27:37.788Z,85.80
2018-02-08T00:30:05.433Z,85.70
2018-02-08T00:32:33.019Z,85.80
2018-02-08T00:35:00.623Z,85.80
2018-02-08T00:37:28.220Z,85.80
2018-02-08T00:39:55.827Z,85.80
2018-02-08T00:42:23.431Z,85.80
2018-02-08T00:44:51.035Z,85.80
2018-02-08T00:47:18.656Z,85.80
2018-02-08T00:49:46.268Z,86.20
2018-02-08T00:52:13.856Z,86.00
2018-02-08T00:54:41.464Z,86.20
2018-02-08T00:57:09.051Z,86.20
2018-02-08T00:59:37.878Z,86.30
2018-02-08T01:02:05.447Z,86.30
2018-02-08T01:04:33.039Z,86.20
2018-02-08T01:07:00.642Z,86.00
2018-02-08T01:09:28.304Z,86.20
2018-02-08T01:11:55.930Z,86.30
2018-02-08T01:14:23.495Z,86.30
2018-02-08T01:16:51.125Z,86.30
2018-02-08T01:19:18.689Z,86.30
2018-02-08T01:21:46.282Z,86.30
2018-02-08T01:24:13.908Z,86.30
2018-02-08T01:26:41.548Z,86.20
2018-02-08T01:29:09.156Z,86.00
2018-02-08T01:31:37.167Z,86.20
2018-02-08T01:34:04.744Z,86.20
2018-02-08T01:36:32.351Z,86.30
2018-02-08T01:38:59.947Z,86.30
2018-02-08T01:41:27.563Z,86.30
2018-02-08T01:43:55.159Z,86.30
2018-02-08T01:46:22.936Z,86.30
2018-02-08T01:48:50.500Z,86.40
2018-02-08T01:51:18.119Z,86.50
2018-02-08T01:53:46.125Z,86.60
2018-02-08T01:56:13.763Z,86.60
2018-02-08T01:58:41.396Z,86.70
2018-02-08T02:01:09.097Z,86.60
2018-02-08T02:03:36.763Z,86.70
2018-02-08T02:06:04.427Z,86.70
2018-02-08T02:08:32.068Z,86.80
2018-02-08T02:10:59.724Z,86.70
2018-02-08T02:13:27.296Z,86.70
2018-02-08T02:15:54.883Z,86.90
2018-02-08T02:18:22.507Z,86.70
2018-02-08T02:20:50.100Z,86.70
2018-02-08T02:23:17.738Z,86.90
2018-02-08T02:25:45.334Z,86.80
2018-02-08T02:28:12.950Z,87.10
2018-02-08T02:30:40.551Z,87.10
2018-02-08T02:33:08.176Z,87.10
2018-02-08T02:35:35.838Z,87.00
2018-02-08T02:38:03.667Z,87.10
2018-02-08T02:40:31.263Z,87.10
2018-02-08T02:42:58.836Z,87.20
2018-02-08T02:45:26.448Z,87.20
2018-02-08T02:48:09.654Z,87.30
2018-02-08T02:50:37.342Z,87.30
2018-02-08T02:53:04.964Z,87.20
2018-02-08T02:55:32.575Z,87.20
2018-02-08T02:58:00.170Z,87.30
2018-02-08T03:00:29.117Z,87.40
2018-02-08T03:02:56.717Z,87.40
2018-02-08T03:05:24.331Z,87.30
2018-02-08T03:07:51.946Z,87.30
2018-02-08T03:10:19.546Z,87.20
2018-02-08T03:12:47.159Z,87.10
2018-02-08T03:15:14.707Z,87.00
2018-02-08T03:17:42.314Z,87.00
2018-02-08T03:20:09.958Z,87.00
2018-02-08T03:22:37.586Z,87.00
2018-02-08T03:25:05.149Z,86.90
2018-02-08T03:27:32.758Z,86.90
2018-02-08T03:30:00.348Z,87.00
2018-02-08T03:32:27.956Z,87.00
2018-02-08T03:34:55.535Z,87.00
2018-02-08T03:37:23.215Z,86.90
2018-02-08T03:39:50.972Z,86.60
2018-02-08T03:42:18.549Z,86.70
2018-02-08T03:44:46.184Z,86.80
2018-02-08T03:47:13.814Z,86.70
2018-02-08T03:49:41.438Z,86.60
2018-02-08T03:52:09.016Z,86.60
2018-02-08T03:54:36.621Z,86.60
2018-02-08T03:57:04.199Z,86.60
2018-02-08T03:59:31.818Z,86.60
2018-02-08T04:01:59.418Z,86.60
2018-02-08T04:04:27.078Z,86.50
2018-02-08T04:06:54.675Z,86.50
2018-02-08T04:09:22.309Z,86.40
2018-02-08T04:11:50.290Z,86.50
2018-02-08T04:14:17.941Z,86.50
2018-02-08T04:16:45.578Z,86.40
2018-02-08T04:19:13.229Z,86.50
2018-02-08T04:21:40.784Z,86.40
2018-02-08T04:24:08.401Z,86.30
2018-02-08T04:26:36.034Z,86.30
2018-02-08T04:29:03.626Z,86.30
2018-02-08T04:31:31.218Z,86.40
2018-02-08T04:33:58.822Z,86.40
2018-02-08T04:36:26.402Z,86.40
2018-02-08T04:39:06.226Z,86.40
2018-02-08T04:41:45.546Z,86.40
2018-02-08T04:44:25.056Z,86.50
2018-02-08T04:47:00.127Z,86.60
2018-02-08T04:49:27.736Z,86.70
2018-02-08T04:51:55.375Z,86.60
2018-02-08T04:54:23.378Z,86.80
2018-02-08T04:56:50.987Z,86.80
2018-02-08T04:59:18.626Z,86.90
2018-02-08T05:01:46.250Z,86.90
2018-02-08T05:04:13.871Z,87.10
2018-02-08T05:06:41.837Z,87.00
2018-02-08T05:09:09.474Z,87.00
2018-02-08T05:11:37.041Z,87.20
2018-02-08T05:14:04.655Z,87.30
2018-02-08T05:16:32.259Z,87.30
2018-02-08T05:18:59.852Z,87.30
2018-02-08T05:21:27.458Z,87.30
2018-02-08T05:23:55.089Z,87.40
2018-02-08T05:26:23.825Z,87.40
2018-02-08T05:28:51.489Z,87.60
2018-02-08T05:31:19.105Z,87.40
2018-02-08T05:33:46.738Z,87.60
2018-02-08T05:36:14.357Z,87.70
2018-02-08T05:38:41.964Z,87.70
2018-02-08T05:41:09.758Z,87.70
2018-02-08T05:43:37.387Z,87.80
2018-02-08T05:46:04.975Z,87.70
2018-02-08T05:48:32.571Z,87.80
2018-02-08T05:51:00.158Z,87.80
2018-02-08T05:53:27.789Z,88.00
2018-02-08T05:55:55.411Z,87.90
2018-02-08T05:58:23.021Z,87.90
2018-02-08T06:00:50.636Z,87.90
2018-02-08T06:03:18.214Z,87.90
2018-02-08T06:05:45.840Z,88.00
2018-02-08T06:08:13.487Z,87.90
2018-02-08T06:10:41.081Z,88.00
2018-02-08T06:13:08.723Z,88.00
2018-02-08T06:15:36.346Z,88.00
2018-02-08T06:18:04.003Z,88.10
2018-02-08T06:20:31.633Z,88.10
2018-02-08T06:22:59.663Z,88.40
2018-02-08T06:25:30.873Z,88.30
2018-02-08T06:27:58.703Z,88.40
2018-02-08T06:30:27.585Z,88.30
2018-02-08T06:32:55.325Z,88.30
2018-02-08T06:35:24.892Z,88.40
2018-02-08T06:37:52.505Z,88.50
2018-02-08T06:40:20.133Z,88.50
2018-02-08T06:42:47.728Z,88.50
2018-02-08T06:45:15.322Z,88.40
2018-02-08T06:47:43.449Z,88.30
2018-02-08T06:50:11.026Z,88.40
2018-02-08T06:52:38.696Z,88.30
2018-02-08T06:55:06.245Z,88.30
2018-02-08T06:57:33.869Z,88.30
2018-02-08T07:00:01.442Z,88.30
2018-02-08T07:02:29.046Z,88.30
2018-02-08T07:04:56.646Z,88.00
2018-02-08T07:07:24.307Z,87.90
2018-02-08T07:09:52.215Z,87.90
2018-02-08T07:12:19.806Z,87.90
2018-02-08T07:14:47.508Z,87.70
2018-02-08T07:17:15.522Z,87.70
2018-02-08T07:19:43.649Z,87.70
2018-02-08T07:22:11.288Z,87.70
2018-02-08T07:24:44.266Z,87.70
2018-02-08T07:27:12.075Z,87.70
2018-02-08T07:29:39.686Z,87.60
2018-02-08T07:32:07.317Z,87.60
2018-02-08T07:34:34.914Z,87.80
2018-02-08T07:37:02.547Z,87.80
2018-02-08T07:39:30.153Z,87.80
2018-02-08T07:41:57.771Z,87.80
2018-02-08T07:44:25.373Z,87.80
2018-02-08T07:46:52.968Z,87.80
2018-02-08T07:49:20.550Z,87.80
2018-02-08T07:51:48.150Z,87.70
2018-02-08T07:54:15.759Z,87.70
2018-02-08T07:56:44.255Z,87.80
2018-02-08T07:59:11.882Z,87.80
2018-02-08T08:01:39.472Z,87.80
2018-02-08T08:04:07.087Z,87.80
2018-02-08T08:06:34.706Z,87.90
2018-02-08T08:09:02.591Z,87.80
2018-02-08T08:11:30.354Z,87.40
2018-02-08T08:13:58.015Z,87.30
2018-02-08T08:16:25.582Z,87.20
2018-02-08T08:18:53.209Z,86.50
2018-02-08T08:21:20.757Z,86.00
2018-02-08T08:23:48.398Z,85.70
2018-02-08T08:26:15.969Z,85.30
2018-02-08T08:28:43.602Z,85.00
2018-02-08T08:31:11.147Z,84.80
2018-02-08T08:33:38.780Z,85.10
2018-02-08T08:36:06.334Z,85.10
2018-02-08T08:38:33.927Z,85.10
2018-02-08T08:41:01.589Z,84.60
2018-02-08T08:43:29.168Z,84.60
2018-02-08T08:45:56.774Z,84.80
2018-02-08T08:48:24.364Z,84.80
2018-02-08T08:50:51.942Z,84.60
2018-02-08T08:53:19.554Z,84.30
2018-02-08T08:55:47.130Z,84.10
2018-02-08T08:58:14.715Z,83.90
2018-02-08T09:00:42.692Z,83.00
2018-02-08T09:03:10.299Z,83.00
2018-02-08T09:05:37.956Z,82.80
2018-02-08T09:08:05.522Z,81.90
2018-02-08T09:10:33.111Z,80.80
2018-02-08T09:13:00.703Z,80.60
2018-02-08T09:15:28.320Z,80.90
2018-02-08T09:17:55.954Z,80.90
2018-02-08T09:20:23.539Z,80.10
2018-02-08T09:22:51.093Z,79.50
2018-02-08T09:25:18.669Z,78.80
2018-02-08T09:27:46.257Z,79.30
2018-02-08T09:30:13.842Z,79.10
2018-02-08T09:32:41.393Z,79.30
2018-02-08T09:35:08.986Z,79.30
2018-02-08T09:37:36.810Z,79.30
2018-02-08T09:40:04.398Z,78.80
2018-02-08T09:42:31.968Z,78.60
2018-02-08T09:44:59.911Z,78.20
2018-02-08T09:47:27.502Z,78.50
2018-02-08T09:49:55.098Z,78.40
2018-02-08T09:52:22.656Z,78.10
2018-02-08T09:54:50.264Z,78.10
2018-02-08T09:57:17.866Z,78.40
2018-02-08T09:59:45.477Z,78.50
2018-02-08T10:02:13.049Z,78.30
2018-02-08T10:04:41.643Z,78.60
2018-02-08T10:07:09.186Z,78.30
2018-02-08T10:09:37.028Z,78.30
2018-02-08T10:12:04.593Z,78.00
2018-02-08T10:14:32.143Z,78.10
2018-02-08T10:16:59.773Z,77.40
2018-02-08T10:19:27.330Z,76.90
2018-02-08T10:21:54.938Z,77.20
2018-02-08T10:24:22.545Z,76.90
2018-02-08T10:26:50.359Z,76.60
2018-02-08T10:29:18.211Z,76.60
2018-02-08T10:31:45.795Z,77.60
2018-02-08T10:34:13.353Z,77.20
2018-02-08T10:36:40.970Z,77.20
2018-02-08T10:39:08.546Z,77.70
2018-02-08T10:41:36.150Z,77.90
2018-02-08T10:44:03.721Z,77.90
2018-02-08T10:46:31.563Z,77.90
2018-02-08T10:48:59.158Z,77.40
2018-02-08T10:51:26.752Z,77.70
2018-02-08T10:53:54.304Z,77.80
2018-02-08T10:56:21.886Z,77.60
2018-02-08T10:58:49.598Z,77.40
2018-02-08T11:01:17.218Z,77.60
2018-02-08T11:06:18.951Z,77.40
2018-02-08T11:08:46.490Z,77.80
2018-02-08T11:11:14.083Z,77.60
2018-02-08T11:13:41.671Z,76.60
2018-02-08T11:16:09.301Z,76.60
2018-02-08T11:18:36.866Z,75.90
2018-02-08T11:21:04.607Z,75.50
2018-02-08T11:23:32.187Z,75.90
2018-02-08T11:25:59.762Z,77.30
2018-02-08T11:28:27.341Z,77.30
2018-02-08T11:30:54.931Z,76.90
2018-02-08T11:33:22.556Z,76.50
2018-02-08T11:35:50.154Z,77.10
2018-02-08T11:38:17.747Z,77.60
2018-02-08T11:40:45.303Z,76.70
2018-02-08T11:43:12.962Z,76.80
2018-02-08T11:45:40.521Z,75.90
2018-02-08T11:48:08.198Z,75.70
2018-02-08T11:50:35.783Z,75.50
2018-02-08T11:53:03.433Z,74.80
2018-02-08T11:55:31.001Z,73.00
2018-02-08T11:57:58.630Z,71.90
2018-02-08T12:00:26.507Z,73.70
2018-02-08T12:02:54.158Z,73.10
2018-02-08T12:05:21.879Z,74.80
2018-02-08T12:07:49.573Z,75.70
2018-02-08T12:10:17.174Z,74.00
2018-02-08T12:12:44.784Z,73.70
2018-02-08T12:15:12.413Z,72.20
2018-02-08T12:17:40.021Z,69.80
2018-02-08T12:20:07.605Z,71.00
2018-02-08T12:22:35.195Z,72.00
2018-02-08T12:25:02.753Z,73.00
2018-02-08T12:27:30.344Z,73.50
2018-02-08T12:29:57.898Z,71.10
2018-02-08T12:32:25.473Z,70.80
2018-02-08T12:34:53.036Z,69.80
2018-02-08T12:37:20.626Z,70.50
2018-02-08T12:39:48.313Z,70.60
2018-02-08T12:42:15.885Z,69.30
2018-02-08T12:44:43.510Z,70.00
2018-02-08T12:47:11.138Z,69.40
2018-02-08T12:49:38.742Z,70.70
2018-02-08T12:52:06.374Z,70.50
2018-02-08T12:54:33.990Z,69.20
2018-02-08T12:57:01.724Z,68.90
2018-02-08T12:59:29.342Z,70.00
2018-02-08T13:01:56.923Z,68.80
2018-02-08T13:04:24.690Z,69.20
2018-02-08T13:06:52.525Z,68.90
2018-02-08T13:09:20.127Z,67.10
2018-02-08T13:11:47.687Z,66.30
2018-02-08T13:14:15.280Z,66.20
2018-02-08T13:16:42.856Z,68.30
2018-02-08T13:19:10.722Z,68.40
2018-02-08T13:21:39.269Z,67.70
2018-02-08T13:24:07.394Z,69.90
2018-02-08T13:26:35.687Z,70.20
2018-02-08T13:29:03.317Z,68.90
2018-02-08T13:31:33.973Z,68.40
2018-02-08T13:34:02.972Z,68.40
2018-02-08T13:39:30.585Z,68.20
2018-02-08T13:42:05.791Z,68.50
2018-02-08T13:44:33.784Z,69.30
2018-02-08T13:47:04.983Z,68.90
2018-02-08T13:49:35.593Z,70.00
2018-02-08T13:52:13.085Z,70.10
2018-02-08T13:54:41.518Z,70.60
2018-02-08T13:57:14.800Z,71.60
2018-02-08T13:59:55.721Z,72.20
2018-02-08T14:02:23.633Z,70.90
2018-02-08T14:04:51.917Z,70.60
2018-02-08T14:07:19.511Z,70.80
2018-02-08T14:09:47.112Z,69.80
2018-02-08T14:12:14.702Z,69.70
2018-02-08T14:14:42.323Z,68.90
2018-02-08T14:17:09.911Z,68.90
2018-02-08T14:19:37.571Z,69.90
2018-02-08T14:22:05.154Z,70.30
2018-02-08T14:24:32.740Z,68.60
2018-02-08T14:27:04.374Z,68.50
2018-02-08T14:29:31.969Z,68.60
2018-02-08T14:31:59.514Z,67.70
2018-02-08T14:34:27.091Z,66.70
2018-02-08T14:36:54.695Z,66.50
2018-02-08T14:39:22.286Z,67.90
2018-02-08T14:41:49.884Z,69.30
2018-02-08T14:44:17.486Z,69.80
2018-02-08T14:46:45.103Z,70.80
2018-02-08T14:49:12.662Z,71.10
2018-02-08T14:51:40.251Z,71.70
2018-02-08T14:54:07.818Z,71.90
2018-02-08T14:56:36.564Z,72.20
2018-02-08T14:59:04.141Z,72.60
2018-02-08T15:01:31.763Z,72.60
2018-02-08T15:03:59.399Z,72.70
2018-02-08T15:06:27.054Z,72.60
2018-02-08T15:08:54.674Z,73.10
2018-02-08T15:11:22.434Z,73.80
2018-02-08T15:13:49.988Z,74.00
2018-02-08T15:16:17.573Z,74.30
2018-02-08T15:18:46.964Z,74.50
2018-02-08T15:21:14.690Z,74.20
2018-02-08T15:23:42.280Z,74.90
2018-02-08T15:26:09.897Z,75.30
2018-02-08T15:28:37.462Z,75.00
2018-02-08T15:31:05.038Z,75.20
2018-02-08T15:33:32.581Z,75.60
2018-02-08T15:36:00.157Z,75.60
2018-02-08T15:38:27.810Z,75.70
2018-02-08T15:40:56.560Z,74.50
2018-02-08T15:43:27.977Z,74.50
2018-02-08T15:45:55.770Z,75.10
2018-02-08T15:48:28.760Z,75.30
2018-02-08T15:50:56.338Z,75.20
2018-02-08T15:53:28.626Z,75.40
2018-02-08T15:55:56.423Z,75.80
2018-02-08T15:58:24.974Z,76.20
2018-02-08T16:00:53.130Z,76.50
2018-02-08T16:03:20.760Z,76.50
2018-02-08T16:05:49.565Z,76.90
2018-02-08T16:08:17.360Z,77.40
2018-02-08T16:10:44.918Z,77.60
2018-02-08T16:13:14.943Z,77.40
2018-02-08T16:15:44.027Z,77.60
2018-02-08T16:18:12.539Z,77.70
2018-02-08T16:20:55.453Z,77.80
2018-02-08T16:23:23.501Z,78.10
2018-02-08T16:25:54.200Z,78.10
2018-02-08T16:28:21.793Z,78.10
2018-02-08T16:30:55.242Z,78.20
2018-02-08T16:33:22.850Z,78.20
2018-02-08T16:35:50.413Z,78.40
2018-02-08T16:38:17.994Z,78.30
2018-02-08T16:40:49.609Z,78.50
2018-02-08T16:43:17.211Z,78.50
2018-02-08T16:45:45.210Z,78.70
2018-02-08T16:48:12.769Z,78.70
2018-02-08T16:50:40.394Z,78.60
2018-02-08T16:53:12.805Z,78.60
2018-02-08T16:55:40.727Z,78.70
2018-02-08T16:58:08.320Z,78.70
2018-02-08T17:00:35.926Z,78.70
2018-02-08T17:03:03.574Z,78.90
2018-02-08T17:05:31.653Z,79.50
2018-02-08T17:07:59.562Z,79.40
2018-02-08T17:10:28.033Z,79.60
2018-02-08T17:12:56.271Z,79.80
2018-02-08T17:15:23.917Z,79.80
2018-02-08T17:17:51.558Z,80.10
2018-02-08T17:20:19.158Z,80.20
2018-02-08T17:22:46.714Z,80.30
2018-02-08T17:25:14.292Z,80.30
2018-02-08T17:27:42.293Z,80.70
2018-02-08T17:30:09.899Z,80.70
2018-02-08T17:32:37.639Z,80.20
2018-02-08T17:35:05.258Z,80.30
2018-02-08T17:37:32.842Z,80.30
2018-02-08T17:40:00.443Z,80.30
2018-02-08T17:42:28.071Z,80.30
2018-02-08T17:44:55.653Z,80.80
2018-02-08T17:47:23.222Z,81.00
2018-02-08T17:49:50.886Z,80.90
2018-02-08T17:52:18.618Z,80.90
2018-02-08T17:54:46.230Z,81.00
2018-02-08T17:57:13.787Z,80.90
2018-02-08T17:59:41.395Z,81.00
2018-02-08T18:02:09.360Z,80.70
2018-02-08T18:04:36.966Z,80.70
2018-02-08T18:07:04.587Z,80.20
2018-02-08T18:09:32.164Z,80.20
2018-02-08T18:11:59.721Z,80.30
2018-02-08T18:14:27.409Z,80.60
2018-02-08T18:16:55.022Z,80.90
2018-02-08T18:19:22.621Z,80.90
2018-02-08T18:21:50.209Z,80.60
2018-02-08T18:24:17.800Z,80.30
2018-02-08T18:26:45.384Z,80.10
2018-02-08T18:29:12.977Z,80.50
2018-02-08T18:31:40.564Z,80.70
2018-02-08T18:34:08.180Z,80.80
2018-02-08T18:36:35.774Z,80.50
2018-02-08T18:39:03.327Z,80.60
2018-02-08T18:41:30.905Z,80.60
2018-02-08T18:43:58.454Z,80.70
2018-02-08T18:46:26.428Z,80.50
2018-02-08T18:48:54.057Z,80.50
2018-02-08T18:51:21.649Z,80.30
2018-02-08T18:53:49.218Z,80.20
2018-02-08T18:56:16.825Z,80.20
2018-02-08T18:58:44.406Z,80.20
2018-02-08T19:01:11.998Z,80.10
2018-02-08T19:03:39.557Z,80.00
2018-02-08T19:06:07.196Z,80.10
2018-02-08T19:08:34.764Z,80.30
2018-02-08T19:11:02.357Z,80.60
2018-02-08T19:13:29.946Z,80.80
2018-02-08T19:15:57.538Z,80.80
2018-02-08T19:18:25.091Z,81.10
2018-02-08T19:20:52.673Z,81.40
2018-02-08T19:23:20.289Z,81.90
2018-02-08T19:25:47.906Z,82.00
2018-02-08T19:28:15.509Z,82.20
2018-02-08T19:30:43.164Z,82.30
2018-02-08T19:33:10.713Z,82.30
2018-02-08T19:35:38.314Z,82.30
2018-02-08T19:38:05.898Z,82.30
2018-02-08T19:40:33.524Z,82.40
2018-02-08T19:43:01.120Z,82.60
2018-02-08T19:45:28.686Z,82.80
2018-02-08T19:47:56.261Z,82.90
2018-02-08T19:50:23.825Z,83.10
2018-02-08T19:52:51.436Z,83.20
2018-02-08T19:55:19.010Z,83.10
2018-02-08T19:57:46.631Z,83.20
2018-02-08T20:00:14.222Z,83.40
2018-02-08T20:02:41.863Z,83.20
2018-02-08T20:05:09.445Z,83.20
2018-02-08T20:07:37.090Z,83.20
2018-02-08T20:10:04.697Z,83.10
2018-02-08T20:12:32.342Z,83.20
2018-02-08T20:15:00.333Z,83.40
2018-02-08T20:17:27.926Z,83.40
2018-02-08T20:19:55.532Z,83.40
2018-02-08T20:22:23.149Z,83.40
2018-02-08T20:24:50.717Z,83.40
2018-02-08T20:27:18.305Z,83.40
2018-02-08T20:29:46.252Z,83.20
2018-02-08T20:32:13.842Z,83.20
2018-02-08T20:34:41.414Z,83.20
2018-02-08T20:37:09.207Z,83.20
2018-02-08T20:39:36.793Z,83.20
2018-02-08T20:42:04.516Z,83.20
2018-02-08T20:44:32.388Z,83.40
2018-02-08T20:46:59.970Z,83.40
2018-02-08T20:49:27.629Z,83.40
2018-02-08T20:51:55.574Z,83.50
2018-02-08T20:54:24.032Z,83.80
2018-02-08T20:56:51.646Z,83.90
2018-02-08T20:59:19.574Z,84.00
2018-02-08T21:01:47.179Z,83.90
2018-02-08T21:04:14.850Z,84.00
2018-02-08T21:06:42.409Z,84.10
2018-02-08T21:09:10.198Z,84.00
2018-02-08T21:11:37.823Z,84.00
2018-02-08T21:14:05.831Z,83.90
2018-02-08T21:16:33.754Z,84.00
2018-02-08T21:19:01.374Z,84.10
2018-02-08T21:21:28.977Z,84.10
2018-02-08T21:23:56.558Z,84.10
2018-02-08T21:26:25.365Z,84.00
2018-02-08T21:28:53.216Z,84.60
2018-02-08T21:31:20.829Z,85.60
2018-02-08T21:33:48.414Z,85.00
2018-02-08T21:36:15.966Z,84.20
2018-02-08T21:38:43.550Z,84.20
2018-02-08T21:41:11.142Z,84.10
2018-02-08T21:43:38.777Z,84.10
2018-02-08T21:46:06.390Z,84.20
2018-02-08T21:48:33.958Z,84.30
2018-02-08T21:51:01.538Z,84.30
2018-02-08T21:53:29.522Z,84.20
2018-02-08T21:55:57.094Z,84.20
2018-02-08T21:58:24.682Z,84.20
2018-02-08T22:00:52.318Z,84.20
2018-02-08T22:03:19.872Z,84.20
2018-02-08T22:05:47.462Z,84.40
2018-02-08T22:08:15.077Z,84.60
2018-02-08T22:10:44.830Z,84.80
2018-02-08T22:13:12.426Z,84.60
2018-02-08T22:15:40.010Z,84.60
2018-02-08T22:18:07.557Z,84.40
2018-02-08T22:20:35.209Z,84.20
2018-02-08T22:23:02.758Z,84.10
2018-02-08T22:25:30.393Z,84.10
2018-02-08T22:27:58.069Z,84.30
2018-02-08T22:30:25.678Z,84.60
2018-02-08T22:32:53.242Z,84.50
2018-02-08T22:35:20.875Z,84.50
2018-02-08T22:37:48.483Z,84.60
2018-02-08T22:40:16.122Z,84.80
2018-02-08T22:42:43.698Z,84.90
2018-02-08T22:45:11.953Z,85.00
2018-02-08T22:47:39.593Z,84.90
2018-02-08T22:50:07.170Z,84.80
2018-02-08T22:52:34.807Z,84.80
2018-02-08T22:55:02.385Z,84.60
2018-02-08T22:57:30.014Z,84.60
2018-02-08T22:59:57.582Z,84.60
2018-02-08T23:02:25.169Z,84.60
2018-02-08T23:04:53.166Z,84.40
2018-02-08T23:07:20.775Z,84.40
2018-02-08T23:09:48.402Z,84.60
2018-02-08T23:12:15.998Z,84.80
2018-02-08T23:14:43.585Z,84.60
2018-02-08T23:17:11.246Z,84.80
2018-02-08T23:19:38.825Z,84.60
2018-02-08T23:22:06.458Z,84.60
2018-02-08T23:24:34.081Z,84.60
2018-02-08T23:27:01.661Z,84.60
2018-02-08T23:29:29.210Z,84.50
2018-02-08T23:31:56.837Z,84.40
2018-02-08T23:34:24.470Z,84.30
2018-02-08T23:36:52.113Z,84.30
2018-02-08T23:39:19.728Z,84.40
2018-02-08T23:41:47.365Z,84.60
2018-02-08T23:44:14.945Z,84.80
2018-02-08T23:46:42.598Z,85.00
2018-02-08T23:49:10.177Z,85.00
2018-02-08T23:51:37.725Z,85.00
2018-02-08T23:54:05.348Z,84.90
2018-02-08T23:56:32.982Z,85.20
2018-02-08T23:59:00.579Z,85.20
